Potomac Falls, Virginia
Current Conditions -  °F | °C
As of 4:52 AM on Friday 24 Oct 2014 (Local Time) from KIAD Reporting Station
Clear Clear  
Wind Chill: 51°   Ceiling: Unl
Heat Index: 51°   Visibility: 10mi
Dew Point: 42°   Wind: 7mph
Humidity: 71%   Direction: 300°WNW
Pressure: 29.96"   Gusts: NA
Location:  39.0512°N, 77.4089°W
Report Text: KIAD 240852Z 30006KT 10SM CLR 11/06 A2996 RMK AO2 SLP143 T01060056 53006
Loading
Personal Weather Stations






























Interactive Weather Map
Tropical Storm Tracking
New forecast layout! Learn more

10-Day Weather Forecast

Advertisements
Track Severe Weather on mobile